Time;durP1;ratioP1;P1;durP2;ratioP2;P2;SDS_P1;SDS_P2;PMS_P1;PMS_P2;Temp;Humidity;BMP_temperature;BMP_pressure;BME280_temperature;BME280_humidity;BME280_pressure;Samples;Min_cycle;Max_cycle;Signal;HPM_P1;HPM_P2
2021/12/15 00:02:12;;;;;;;43.20;26.20;;;;;;;;;;5097466;28;20574;-64
2021/12/15 00:04:42;;;;;;;55.75;28.25;;;;;;;;;;5098195;28;20431;-64
2021/12/15 00:07:10;;;;;;;41.93;25.23;;;;;;;;;;5097725;28;20190;-64
2021/12/15 00:09:37;;;;;;;45.90;24.80;;;;;;;;;;5097705;28;20527;-64
2021/12/15 00:12:05;;;;;;;43.00;26.00;;;;;;;;;;5097352;28;20538;-64
2021/12/15 00:14:33;;;;;;;42.13;26.52;;;;;;;;;;5097157;28;20250;-64
2021/12/15 00:17:01;;;;;;;41.90;24.80;;;;;;;;;;5097916;28;20233;-64
2021/12/15 00:19:28;;;;;;;36.67;23.90;;;;;;;;;;5096992;28;20498;-64
2021/12/15 00:21:57;;;;;;;42.47;26.45;;;;;;;;;;5097135;28;20983;-65
2021/12/15 00:24:24;;;;;;;48.80;28.03;;;;;;;;;;5097183;28;20195;-64
2021/12/15 00:26:52;;;;;;;49.42;27.52;;;;;;;;;;5097189;28;20469;-64
2021/12/15 00:29:19;;;;;;;43.80;27.80;;;;;;;;;;5096738;28;20280;-65
2021/12/15 00:31:46;;;;;;;45.43;27.40;;;;;;;;;;5097010;28;20483;-64
2021/12/15 00:34:14;;;;;;;45.88;27.95;;;;;;;;;;5096611;28;20442;-64
2021/12/15 00:36:44;;;;;;;53.00;28.47;;;;;;;;;;5096571;28;20225;-64
2021/12/15 00:39:14;;;;;;;50.10;27.80;;;;;;;;;;5096568;28;20489;-65
2021/12/15 00:41:41;;;;;;;50.88;28.50;;;;;;;;;;5096440;28;20575;-65
2021/12/15 00:44:09;;;;;;;54.00;32.57;;;;;;;;;;5096679;28;20196;-65
2021/12/15 00:46:37;;;;;;;51.53;30.50;;;;;;;;;;5096457;28;20470;-64
2021/12/15 00:49:05;;;;;;;60.70;33.45;;;;;;;;;;5096671;28;20431;-64
2021/12/15 00:51:33;;;;;;;62.13;32.20;;;;;;;;;;5096293;28;20239;-64
2021/12/15 00:54:00;;;;;;;59.20;32.63;;;;;;;;;;5096577;28;20474;-64
2021/12/15 00:56:29;;;;;;;55.20;32.37;;;;;;;;;;5097034;28;20615;-65
2021/12/15 00:58:56;;;;;;;62.17;31.75;;;;;;;;;;5096482;28;21002;-64
2021/12/15 01:01:24;;;;;;;71.43;34.65;;;;;;;;;;5096091;28;20300;-64
2021/12/15 01:03:51;;;;;;;68.03;36.60;;;;;;;;;;5096676;28;20190;-64
2021/12/15 01:06:21;;;;;;;70.63;37.47;;;;;;;;;;5096390;28;20609;-64
2021/12/15 01:08:53;;;;;;;71.28;37.63;;;;;;;;;;5096297;28;20449;-64
2021/12/15 01:11:27;;;;;;;81.70;38.73;;;;;;;;;;5095970;28;20239;-64
2021/12/15 01:22:14;;;;;;;78.47;37.07;;;;;;;;;;5096123;28;20992;-64
2021/12/15 01:24:41;;;;;;;81.60;40.07;;;;;;;;;;5096084;28;20435;-64
2021/12/15 01:27:08;;;;;;;76.43;41.47;;;;;;;;;;5096214;28;20539;-64
2021/12/15 01:29:37;;;;;;;85.88;40.13;;;;;;;;;;5095559;28;20732;-64
2021/12/15 01:32:05;;;;;;;72.90;40.13;;;;;;;;;;5095906;28;20225;-64
2021/12/15 01:34:32;;;;;;;75.30;40.13;;;;;;;;;;5095834;28;20875;-64
2021/12/15 01:36:59;;;;;;;76.83;41.30;;;;;;;;;;5095813;28;20515;-64
2021/12/15 01:39:27;;;;;;;77.73;39.77;;;;;;;;;;5096016;28;20471;-64
2021/12/15 01:41:56;;;;;;;87.33;43.83;;;;;;;;;;5095765;28;20562;-64
2021/12/15 01:47:18;;;;;;;95.20;38.80;;;;;;;;;;5058847;28;20424;-64
2021/12/15 01:49:46;;;;;;;79.53;40.72;;;;;;;;;;5095534;28;20444;-64
2021/12/15 01:52:14;;;;;;;74.82;37.17;;;;;;;;;;5095926;28;20598;-64
2021/12/15 01:54:43;;;;;;;71.80;38.23;;;;;;;;;;5095422;28;20555;-64
2021/12/15 01:57:11;;;;;;;90.18;41.35;;;;;;;;;;5095304;28;20519;-64
2021/12/15 01:59:39;;;;;;;71.72;38.83;;;;;;;;;;5094986;28;20673;-64
2021/12/15 02:02:07;;;;;;;70.60;38.33;;;;;;;;;;5095648;28;20307;-63
2021/12/15 02:04:36;;;;;;;80.57;40.28;;;;;;;;;;5094900;28;20280;-64
2021/12/15 02:07:05;;;;;;;85.57;41.27;;;;;;;;;;5095374;28;20198;-64
2021/12/15 02:12:15;;;;;;;75.50;37.10;;;;;;;;;;5081972;28;20431;-64
2021/12/15 02:14:43;;;;;;;72.40;39.67;;;;;;;;;;5094487;28;20455;-64
2021/12/15 02:17:10;;;;;;;78.40;37.00;;;;;;;;;;5095037;28;20472;-63
2021/12/15 02:19:39;;;;;;;80.77;37.70;;;;;;;;;;5094917;28;20523;-63
2021/12/15 02:22:07;;;;;;;66.23;34.43;;;;;;;;;;5094716;28;20554;-64
2021/12/15 02:24:36;;;;;;;72.03;37.07;;;;;;;;;;5094871;28;20533;-64
2021/12/15 02:27:05;;;;;;;67.07;35.90;;;;;;;;;;5095317;28;20493;-64
2021/12/15 02:29:37;;;;;;;67.50;34.80;;;;;;;;;;5094416;28;20488;-64
2021/12/15 02:32:14;;;;;;;67.70;35.93;;;;;;;;;;5095251;28;20438;-64
2021/12/15 02:34:57;;;;;;;73.27;36.20;;;;;;;;;;5094936;28;20424;-64
2021/12/15 02:37:25;;;;;;;57.47;33.22;;;;;;;;;;5094763;28;20467;-64
2021/12/15 02:39:54;;;;;;;65.00;36.53;;;;;;;;;;5094271;28;20197;-64
2021/12/15 02:42:22;;;;;;;65.93;38.00;;;;;;;;;;5094088;28;21049;-64
2021/12/15 02:44:49;;;;;;;64.30;38.07;;;;;;;;;;5094495;28;20542;-65
2021/12/15 02:47:18;;;;;;;72.55;36.50;;;;;;;;;;5094709;28;20527;-65
2021/12/15 02:49:45;;;;;;;71.10;36.77;;;;;;;;;;5094401;28;20666;-64
2021/12/15 02:52:12;;;;;;;61.80;33.77;;;;;;;;;;5094322;28;21032;-64
2021/12/15 02:54:41;;;;;;;68.87;35.33;;;;;;;;;;5094329;28;20922;-64
2021/12/15 02:57:11;;;;;;;63.43;30.87;;;;;;;;;;5094431;28;20531;-64
2021/12/15 02:59:48;;;;;;;67.53;34.47;;;;;;;;;;5094247;28;20432;-64
2021/12/15 03:02:35;;;;;;;57.08;32.03;;;;;;;;;;5094587;28;20868;-64
2021/12/15 03:05:08;;;;;;;61.43;34.20;;;;;;;;;;5094717;28;20185;-65
2021/12/15 03:07:42;;;;;;;62.10;33.65;;;;;;;;;;5094370;28;20458;-65
2021/12/15 03:15:38;;;;;;;65.03;34.03;;;;;;;;;;5094270;28;20462;-65
2021/12/15 03:18:09;;;;;;;59.15;35.03;;;;;;;;;;5093599;28;20289;-65
2021/12/15 03:20:37;;;;;;;54.35;31.90;;;;;;;;;;5094162;28;20265;-65
2021/12/15 03:23:06;;;;;;;60.60;34.07;;;;;;;;;;5092980;28;20264;-64
2021/12/15 03:25:34;;;;;;;68.07;30.73;;;;;;;;;;5093487;28;20439;-64
2021/12/15 03:33:43;;;;;;;60.50;33.27;;;;;;;;;;5093537;28;20900;-65
2021/12/15 03:36:14;;;;;;;50.97;30.00;;;;;;;;;;5093673;28;20794;-65
2021/12/15 03:38:43;;;;;;;55.77;33.30;;;;;;;;;;5093418;28;20438;-65
2021/12/15 03:41:12;;;;;;;57.30;33.47;;;;;;;;;;5094234;28;20451;-65
2021/12/15 03:43:40;;;;;;;55.73;30.97;;;;;;;;;;5093768;28;20471;-64
2021/12/15 03:46:10;;;;;;;55.13;32.30;;;;;;;;;;5093796;28;20490;-65
2021/12/15 03:48:39;;;;;;;55.20;33.77;;;;;;;;;;5093883;28;20475;-66
2021/12/15 03:51:06;;;;;;;64.10;34.33;;;;;;;;;;5093729;28;20483;-66
2021/12/15 03:53:34;;;;;;;47.88;29.70;;;;;;;;;;5093497;28;20472;-65
2021/12/15 03:56:02;;;;;;;60.90;33.90;;;;;;;;;;5093510;28;20610;-66
2021/12/15 03:58:31;;;;;;;49.87;30.13;;;;;;;;;;5093459;28;20808;-66
2021/12/15 04:01:00;;;;;;;57.77;30.00;;;;;;;;;;5093455;28;20469;-65
2021/12/15 04:03:30;;;;;;;51.10;31.00;;;;;;;;;;5093466;28;20475;-66
2021/12/15 04:05:58;;;;;;;51.83;30.98;;;;;;;;;;5093083;28;20523;-66
2021/12/15 04:08:26;;;;;;;56.10;31.30;;;;;;;;;;5093280;28;20281;-65
2021/12/15 04:10:55;;;;;;;46.20;28.60;;;;;;;;;;5093581;28;20841;-65
2021/12/15 04:13:23;;;;;;;52.30;30.17;;;;;;;;;;5093598;28;20527;-65
2021/12/15 04:15:55;;;;;;;49.67;30.73;;;;;;;;;;5093115;28;21045;-65
2021/12/15 04:18:23;;;;;;;51.97;30.60;;;;;;;;;;5093855;28;20517;-65
2021/12/15 04:20:50;;;;;;;54.92;30.55;;;;;;;;;;5092943;28;20526;-65
2021/12/15 04:23:20;;;;;;;57.20;31.92;;;;;;;;;;5093168;28;20300;-65
2021/12/15 04:25:49;;;;;;;49.27;29.90;;;;;;;;;;5093971;28;20277;-65
2021/12/15 04:28:17;;;;;;;52.43;32.00;;;;;;;;;;5093695;28;20445;-65
2021/12/15 04:30:48;;;;;;;58.40;29.93;;;;;;;;;;5093015;28;20930;-64
2021/12/15 04:33:19;;;;;;;53.87;32.20;;;;;;;;;;5093755;28;20431;-64
2021/12/15 04:35:47;;;;;;;52.75;30.20;;;;;;;;;;5096700;28;20518;-65
2021/12/15 04:38:15;;;;;;;51.73;31.17;;;;;;;;;;5096628;28;20239;-65
2021/12/15 04:40:43;;;;;;;54.30;31.60;;;;;;;;;;5097345;28;20475;-65
2021/12/15 04:43:11;;;;;;;51.10;30.83;;;;;;;;;;5096443;28;20565;-65
2021/12/15 04:45:39;;;;;;;53.30;31.83;;;;;;;;;;5097119;28;20450;-65
2021/12/15 04:48:06;;;;;;;60.05;33.55;;;;;;;;;;5096725;28;20522;-65
2021/12/15 04:50:35;;;;;;;52.20;32.73;;;;;;;;;;5096555;28;20281;-65
2021/12/15 04:53:03;;;;;;;67.07;32.83;;;;;;;;;;5096558;28;20486;-64
2021/12/15 04:55:31;;;;;;;50.87;30.70;;;;;;;;;;5096425;28;20857;-65
2021/12/15 04:57:59;;;;;;;55.07;31.33;;;;;;;;;;5096191;28;20479;-64
2021/12/15 05:00:29;;;;;;;53.23;30.50;;;;;;;;;;5097297;28;20442;-64
2021/12/15 05:02:56;;;;;;;65.60;35.57;;;;;;;;;;5096116;28;20471;-65
2021/12/15 05:05:25;;;;;;;56.53;33.35;;;;;;;;;;5096539;28;20481;-64
2021/12/15 05:07:54;;;;;;;53.90;33.87;;;;;;;;;;5095851;28;20240;-65
2021/12/15 05:10:21;;;;;;;67.95;35.30;;;;;;;;;;5095928;28;21001;-65
2021/12/15 05:12:49;;;;;;;59.70;34.40;;;;;;;;;;5096809;28;20274;-65
2021/12/15 05:15:17;;;;;;;62.37;33.23;;;;;;;;;;5096342;28;20565;-65
2021/12/15 05:17:44;;;;;;;66.50;36.40;;;;;;;;;;5096090;28;20529;-65
2021/12/15 05:20:11;;;;;;;71.97;33.80;;;;;;;;;;5095830;28;20197;-65
2021/12/15 05:22:39;;;;;;;65.00;34.50;;;;;;;;;;5095667;28;20571;-65
2021/12/15 05:25:08;;;;;;;61.57;32.53;;;;;;;;;;5095713;28;20539;-65
2021/12/15 05:27:36;;;;;;;64.93;33.43;;;;;;;;;;5095933;28;20473;-65
2021/12/15 05:30:04;;;;;;;59.67;32.70;;;;;;;;;;5095605;28;20476;-65
2021/12/15 05:32:31;;;;;;;52.80;28.70;;;;;;;;;;5094792;28;20538;-65
2021/12/15 05:34:59;;;;;;;51.37;30.40;;;;;;;;;;5095137;28;20439;-64
2021/12/15 05:37:27;;;;;;;53.03;30.00;;;;;;;;;;5095782;28;20451;-64
2021/12/15 05:39:55;;;;;;;51.93;30.83;;;;;;;;;;5095426;28;20870;-64
2021/12/15 05:42:25;;;;;;;52.20;30.67;;;;;;;;;;5094917;28;20450;-64
2021/12/15 05:44:53;;;;;;;56.43;32.07;;;;;;;;;;5094967;28;20287;-64
2021/12/15 05:47:21;;;;;;;51.70;29.20;;;;;;;;;;5095045;28;20531;-65
2021/12/15 05:49:48;;;;;;;51.42;30.25;;;;;;;;;;5095199;28;20930;-65
2021/12/15 05:52:15;;;;;;;51.53;33.03;;;;;;;;;;5095525;28;20284;-64
2021/12/15 05:54:42;;;;;;;54.57;31.23;;;;;;;;;;5095369;28;20240;-64
2021/12/15 05:57:10;;;;;;;55.37;31.67;;;;;;;;;;5095406;28;20486;-64
2021/12/15 05:59:40;;;;;;;58.67;31.70;;;;;;;;;;5095210;28;20447;-64
2021/12/15 06:02:08;;;;;;;60.10;30.57;;;;;;;;;;5095345;28;20531;-64
2021/12/15 06:04:35;;;;;;;52.13;29.50;;;;;;;;;;5095548;28;20487;-65
2021/12/15 06:07:03;;;;;;;59.77;33.87;;;;;;;;;;5094872;28;20535;-64
2021/12/15 06:09:30;;;;;;;51.57;28.83;;;;;;;;;;5094977;28;20533;-65
2021/12/15 06:11:57;;;;;;;51.97;32.10;;;;;;;;;;5095596;28;20470;-65
2021/12/15 06:14:27;;;;;;;55.00;31.27;;;;;;;;;;5095058;28;20479;-64
2021/12/15 06:16:58;;;;;;;58.53;32.97;;;;;;;;;;5095517;28;20512;-65
2021/12/15 06:19:25;;;;;;;59.30;31.83;;;;;;;;;;5095477;28;20481;-65
2021/12/15 06:21:53;;;;;;;56.57;32.93;;;;;;;;;;5094899;28;20934;-64
2021/12/15 06:24:20;;;;;;;52.72;30.23;;;;;;;;;;5094729;28;20871;-65
2021/12/15 06:26:48;;;;;;;55.22;31.65;;;;;;;;;;5094561;28;20251;-65
2021/12/15 06:29:15;;;;;;;56.47;30.60;;;;;;;;;;5094560;28;20686;-65
2021/12/15 06:31:42;;;;;;;57.03;32.03;;;;;;;;;;5094602;28;20961;-65
2021/12/15 06:34:11;;;;;;;54.03;30.00;;;;;;;;;;5094357;28;20443;-65
2021/12/15 06:36:38;;;;;;;54.20;30.80;;;;;;;;;;5094633;28;20467;-64
2021/12/15 06:39:06;;;;;;;48.90;29.20;;;;;;;;;;5094500;28;20539;-65
2021/12/15 06:41:34;;;;;;;47.70;28.02;;;;;;;;;;5094553;28;20842;-63
2021/12/15 06:44:01;;;;;;;51.80;30.47;;;;;;;;;;5094254;28;20213;-64
2021/12/15 06:47:02;;;;;;;49.33;29.30;;;;;;;;;;5094680;28;20482;-64
2021/12/15 07:00:31;;;;;;;60.97;30.67;;;;;;;;;;5094034;28;20225;-65
2021/12/15 07:02:59;;;;;;;51.60;27.90;;;;;;;;;;5094466;28;20562;-64
2021/12/15 07:05:28;;;;;;;54.50;29.80;;;;;;;;;;5094128;28;20468;-64
2021/12/15 07:07:55;;;;;;;59.93;30.30;;;;;;;;;;5093694;28;20489;-64
2021/12/15 07:10:24;;;;;;;55.20;30.50;;;;;;;;;;5093937;28;20937;-65
2021/12/15 07:12:56;;;;;;;54.80;31.07;;;;;;;;;;5094790;28;20463;-65
2021/12/15 07:15:25;;;;;;;54.37;32.80;;;;;;;;;;5093781;28;20995;-64
2021/12/15 07:18:01;;;;;;;58.33;31.20;;;;;;;;;;5094189;28;20439;-64
2021/12/15 07:20:37;;;;;;;59.13;31.23;;;;;;;;;;5093869;28;20432;-64
2021/12/15 07:23:11;;;;;;;52.17;31.13;;;;;;;;;;5093803;28;20467;-64
2021/12/15 07:25:41;;;;;;;58.03;31.70;;;;;;;;;;5094310;28;20553;-64
2021/12/15 07:28:24;;;;;;;65.03;34.10;;;;;;;;;;5094382;28;20446;-65
2021/12/15 07:30:53;;;;;;;62.17;30.67;;;;;;;;;;5094118;28;20436;-64
2021/12/15 07:33:21;;;;;;;56.45;30.38;;;;;;;;;;5093708;28;20470;-64
2021/12/15 07:35:50;;;;;;;59.40;32.47;;;;;;;;;;5093251;28;20225;-65
2021/12/15 07:38:20;;;;;;;61.30;31.27;;;;;;;;;;5093786;28;20445;-64
2021/12/15 07:40:57;;;;;;;65.68;34.22;;;;;;;;;;5093543;28;20245;-65
2021/12/15 07:43:30;;;;;;;62.60;32.25;;;;;;;;;;5093177;28;20298;-65
2021/12/15 07:46:01;;;;;;;48.22;28.50;;;;;;;;;;5093182;28;20656;-64
2021/12/15 07:48:30;;;;;;;53.90;30.80;;;;;;;;;;5093601;28;20265;-64
2021/12/15 07:51:00;;;;;;;63.78;33.13;;;;;;;;;;5093107;28;20501;-65
2021/12/15 07:53:27;;;;;;;54.75;32.22;;;;;;;;;;5093472;28;20637;-66
2021/12/15 07:55:55;;;;;;;56.00;30.27;;;;;;;;;;5093043;28;20232;-65
2021/12/15 07:58:23;;;;;;;64.15;32.25;;;;;;;;;;5093166;28;20462;-64
2021/12/15 08:00:52;;;;;;;56.33;30.92;;;;;;;;;;5093369;28;20287;-64
2021/12/15 08:03:22;;;;;;;63.00;32.55;;;;;;;;;;5093271;28;20229;-64
2021/12/15 08:05:50;;;;;;;62.70;32.37;;;;;;;;;;5093804;28;20660;-64
2021/12/15 08:08:19;;;;;;;50.17;27.58;;;;;;;;;;5094248;28;20827;-64
2021/12/15 08:10:46;;;;;;;58.23;29.57;;;;;;;;;;5096995;28;20209;-65
2021/12/15 08:13:15;;;;;;;51.97;30.03;;;;;;;;;;5097767;28;20444;-65
2021/12/15 08:15:42;;;;;;;62.17;32.43;;;;;;;;;;5097313;28;20478;-65
2021/12/15 08:18:11;;;;;;;58.60;29.60;;;;;;;;;;5097593;28;20530;-64
2021/12/15 08:20:41;;;;;;;51.38;30.88;;;;;;;;;;5096802;28;21009;-64
2021/12/15 08:23:09;;;;;;;57.17;33.07;;;;;;;;;;5096572;28;20189;-64
2021/12/15 08:25:39;;;;;;;57.67;31.40;;;;;;;;;;5096661;28;20439;-65
2021/12/15 08:28:08;;;;;;;58.77;31.50;;;;;;;;;;5096746;28;20435;-65
2021/12/15 08:30:36;;;;;;;49.63;30.33;;;;;;;;;;5096647;28;20489;-64
2021/12/15 08:33:16;;;;;;;55.30;30.40;;;;;;;;;;5096624;28;20482;-65
2021/12/15 08:35:45;;;;;;;67.40;35.33;;;;;;;;;;5096983;28;20776;-64
2021/12/15 08:38:13;;;;;;;59.88;32.00;;;;;;;;;;5096508;28;20486;-65
2021/12/15 08:40:42;;;;;;;53.13;29.97;;;;;;;;;;5096713;28;20229;-65
2021/12/15 08:43:09;;;;;;;59.17;31.90;;;;;;;;;;5096582;28;20734;-65
2021/12/15 08:45:38;;;;;;;59.00;31.40;;;;;;;;;;5097278;28;20546;-65
2021/12/15 08:48:06;;;;;;;57.60;32.77;;;;;;;;;;5096624;28;20474;-65
2021/12/15 08:50:35;;;;;;;58.43;31.00;;;;;;;;;;5096954;28;20443;-65
2021/12/15 08:53:04;;;;;;;57.50;31.30;;;;;;;;;;5096635;28;20892;-65
2021/12/15 08:55:32;;;;;;;59.40;30.27;;;;;;;;;;5096485;28;20799;-66
2021/12/15 08:58:05;;;;;;;60.37;32.10;;;;;;;;;;5096452;28;20471;-65
2021/12/15 09:00:32;;;;;;;55.77;30.03;;;;;;;;;;5096667;28;20424;-65
2021/12/15 09:02:59;;;;;;;61.55;30.63;;;;;;;;;;5096734;28;20870;-65
2021/12/15 09:05:27;;;;;;;55.60;29.80;;;;;;;;;;5096228;28;20362;-65
2021/12/15 09:07:56;;;;;;;51.95;31.60;;;;;;;;;;5096813;28;20800;-66
2021/12/15 09:10:25;;;;;;;59.10;30.57;;;;;;;;;;5096580;28;20632;-65
2021/12/15 09:12:52;;;;;;;53.95;29.75;;;;;;;;;;5095853;28;20525;-65
2021/12/15 09:15:23;;;;;;;65.05;32.88;;;;;;;;;;5096058;28;20257;-65
2021/12/15 09:17:51;;;;;;;65.80;30.87;;;;;;;;;;5095888;28;20192;-65
2021/12/15 09:20:20;;;;;;;54.50;31.27;;;;;;;;;;5094703;28;20508;-66
2021/12/15 09:22:53;;;;;;;55.08;31.70;;;;;;;;;;5095620;28;20435;-65
2021/12/15 09:25:20;;;;;;;52.15;30.83;;;;;;;;;;5095586;28;20250;-65
2021/12/15 09:27:48;;;;;;;47.50;29.20;;;;;;;;;;5095943;28;20275;-65
2021/12/15 09:30:17;;;;;;;49.13;28.80;;;;;;;;;;5095867;28;20865;-65
2021/12/15 09:32:46;;;;;;;54.87;29.53;;;;;;;;;;5096117;28;20542;-65
2021/12/15 09:35:15;;;;;;;56.37;31.57;;;;;;;;;;5095315;28;20513;-66
2021/12/15 09:37:43;;;;;;;54.03;31.23;;;;;;;;;;5095360;28;20991;-65
2021/12/15 09:40:12;;;;;;;53.83;28.27;;;;;;;;;;5095777;28;20494;-66
2021/12/15 09:42:40;;;;;;;49.77;28.80;;;;;;;;;;5095561;28;20443;-65
2021/12/15 09:45:22;;;;;;;50.22;28.00;;;;;;;;;;5095713;28;20484;-65
2021/12/15 09:48:04;;;;;;;54.73;28.53;;;;;;;;;;5095561;28;20189;-65
2021/12/15 10:04:24;;;;;;;47.85;30.63;;;;;;;;;;5095047;28;20212;-65
2021/12/15 10:07:16;;;;;;;45.10;27.23;;;;;;;;;;5094966;28;20183;-66
2021/12/15 10:17:22;;;;;;;47.42;28.77;;;;;;;;;;5095242;28;20542;-65
2021/12/15 10:18:12;;;;;;;51.17;31.45;;;;;;;;;;5095227;28;20565;-65
2021/12/15 10:20:41;;;;;;;48.33;30.13;;;;;;;;;;5095222;28;20196;-66
2021/12/15 10:23:11;;;;;;;50.57;30.40;;;;;;;;;;5094597;28;20527;-66
2021/12/15 10:25:42;;;;;;;45.07;26.83;;;;;;;;;;5095052;28;20491;-65
2021/12/15 10:28:11;;;;;;;53.00;30.80;;;;;;;;;;5095005;28;20427;-66
2021/12/15 10:30:39;;;;;;;51.87;29.00;;;;;;;;;;5094129;28;20446;-66
2021/12/15 10:33:08;;;;;;;46.90;27.37;;;;;;;;;;5095257;28;20941;-65
2021/12/15 10:35:44;;;;;;;46.60;27.90;;;;;;;;;;5094705;28;20773;-66
2021/12/15 10:38:18;;;;;;;48.50;28.93;;;;;;;;;;5094370;28;20217;-66
2021/12/15 10:40:46;;;;;;;39.63;23.73;;;;;;;;;;5095003;28;20424;-66
2021/12/15 10:43:14;;;;;;;44.87;27.40;;;;;;;;;;5094547;28;20431;-66
2021/12/15 10:45:42;;;;;;;39.13;21.47;;;;;;;;;;5094158;28;20523;-66
2021/12/15 10:48:20;;;;;;;47.93;26.40;;;;;;;;;;5094365;28;20526;-65
2021/12/15 10:50:49;;;;;;;55.27;25.40;;;;;;;;;;5094736;28;20431;-66
2021/12/15 10:53:29;;;;;;;45.30;26.50;;;;;;;;;;5094813;28;20557;-66
2021/12/15 10:55:57;;;;;;;39.57;25.97;;;;;;;;;;5094648;28;20462;-66
2021/12/15 10:58:35;;;;;;;41.23;27.50;;;;;;;;;;5094693;28;20443;-67
2021/12/15 11:01:03;;;;;;;47.47;27.80;;;;;;;;;;5093855;28;20482;-65
2021/12/15 11:03:33;;;;;;;43.73;27.27;;;;;;;;;;5093943;28;20497;-66
2021/12/15 11:06:18;;;;;;;44.40;27.40;;;;;;;;;;5093921;28;20495;-66
2021/12/15 11:08:45;;;;;;;45.80;25.60;;;;;;;;;;5093686;28;20456;-66
2021/12/15 11:11:23;;;;;;;45.57;28.77;;;;;;;;;;5093475;28;20479;-66
2021/12/15 11:13:51;;;;;;;44.90;27.77;;;;;;;;;;5094040;28;20497;-66
2021/12/15 11:16:28;;;;;;;55.60;31.67;;;;;;;;;;5094137;28;20511;-66
2021/12/15 11:18:55;;;;;;;51.17;31.00;;;;;;;;;;5093506;28;20462;-67
2021/12/15 11:21:31;;;;;;;50.57;29.67;;;;;;;;;;5093428;28;20505;-67
2021/12/15 11:23:58;;;;;;;60.63;32.13;;;;;;;;;;5094133;28;20860;-67
2021/12/15 11:26:27;;;;;;;55.53;32.30;;;;;;;;;;5093875;28;20475;-66
2021/12/15 11:28:57;;;;;;;53.37;31.30;;;;;;;;;;5093336;28;20443;-66
2021/12/15 11:31:31;;;;;;;50.93;29.57;;;;;;;;;;5093524;28;20501;-66
2021/12/15 11:34:00;;;;;;;53.90;33.13;;;;;;;;;;5093841;28;20473;-66
2021/12/15 11:36:37;;;;;;;59.67;31.70;;;;;;;;;;5093792;28;20561;-66
2021/12/15 11:39:08;;;;;;;57.73;32.20;;;;;;;;;;5093284;28;20510;-66
2021/12/15 11:41:37;;;;;;;51.20;32.13;;;;;;;;;;5094146;28;20515;-67
2021/12/15 11:44:05;;;;;;;49.73;31.33;;;;;;;;;;5092537;28;20878;-66
2021/12/15 11:46:34;;;;;;;57.43;31.83;;;;;;;;;;5093181;28;20983;-66
2021/12/15 11:49:03;;;;;;;60.77;31.67;;;;;;;;;;5093982;28;20435;-66
2021/12/15 11:51:38;;;;;;;56.27;31.87;;;;;;;;;;5093405;28;20481;-66
2021/12/15 11:54:13;;;;;;;53.60;32.93;;;;;;;;;;5093519;28;20959;-66
2021/12/15 11:56:40;;;;;;;59.57;32.47;;;;;;;;;;5093965;28;20510;-66
2021/12/15 11:59:23;;;;;;;58.57;33.50;;;;;;;;;;5093379;28;20485;-67
2021/12/15 12:01:55;;;;;;;51.03;29.47;;;;;;;;;;5093774;28;20432;-66
2021/12/15 12:04:25;;;;;;;65.50;34.50;;;;;;;;;;5093297;28;20478;-66
2021/12/15 12:07:11;;;;;;;67.20;35.30;;;;;;;;;;5093148;28;20952;-66
2021/12/15 12:09:39;;;;;;;72.53;33.20;;;;;;;;;;5093041;28;20918;-67
2021/12/15 12:12:07;;;;;;;63.60;34.80;;;;;;;;;;5093018;28;20198;-67
2021/12/15 12:14:40;;;;;;;66.50;33.70;;;;;;;;;;5092833;28;20233;-66
2021/12/15 12:17:12;;;;;;;69.50;35.30;;;;;;;;;;5092953;28;20420;-67
2021/12/15 12:19:41;;;;;;;57.40;31.60;;;;;;;;;;5093826;28;20419;-66
2021/12/15 12:22:11;;;;;;;60.30;33.27;;;;;;;;;;5093132;28;20489;-66
2021/12/15 12:24:39;;;;;;;64.13;32.30;;;;;;;;;;5093093;28;20499;-67
2021/12/15 12:27:06;;;;;;;57.23;32.93;;;;;;;;;;5092895;28;20443;-67
2021/12/15 12:29:34;;;;;;;59.63;33.80;;;;;;;;;;5092913;28;20451;-66
2021/12/15 12:32:01;;;;;;;72.00;31.97;;;;;;;;;;5093116;28;20457;-66
2021/12/15 12:34:29;;;;;;;54.47;28.20;;;;;;;;;;5093123;28;20474;-66
2021/12/15 12:36:56;;;;;;;68.07;30.90;;;;;;;;;;5092708;28;20443;-67
2021/12/15 12:39:30;;;;;;;62.37;33.57;;;;;;;;;;5092785;28;21019;-66
2021/12/15 12:41:59;;;;;;;58.33;31.07;;;;;;;;;;5093472;28;20825;-66
2021/12/15 12:44:33;;;;;;;61.87;28.97;;;;;;;;;;5092946;28;20443;-66
2021/12/15 12:47:06;;;;;;;61.27;30.97;;;;;;;;;;5092719;28;20423;-66
2021/12/15 13:00:50;;;;;;;60.93;28.60;;;;;;;;;;5096107;28;20415;-66
2021/12/15 13:03:23;;;;;;;47.20;24.63;;;;;;;;;;5096613;28;20463;-66
2021/12/15 13:05:51;;;;;;;62.70;28.17;;;;;;;;;;5096490;28;20463;-66
2021/12/15 13:08:32;;;;;;;56.63;28.63;;;;;;;;;;5096550;28;20950;-66
2021/12/15 13:11:03;;;;;;;57.50;26.93;;;;;;;;;;5096947;28;20427;-66
2021/12/15 13:13:32;;;;;;;52.83;26.53;;;;;;;;;;5096037;28;20463;-66
2021/12/15 13:16:00;;;;;;;57.63;26.97;;;;;;;;;;5095568;28;20463;-65
2021/12/15 13:18:29;;;;;;;52.90;27.00;;;;;;;;;;5096029;28;20523;-71
2021/12/15 13:21:00;;;;;;;56.63;27.77;;;;;;;;;;5095482;28;20500;-65
2021/12/15 13:23:45;;;;;;;66.43;27.23;;;;;;;;;;5095751;28;20427;-65
2021/12/15 13:29:21;;;;;;;51.17;25.27;;;;;;;;;;5033847;28;20422;-66
2021/12/15 13:31:56;;;;;;;53.87;27.70;;;;;;;;;;5085519;28;20518;-66
2021/12/15 13:34:37;;;;;;;58.87;27.23;;;;;;;;;;5094033;28;20504;-65
2021/12/15 13:37:05;;;;;;;53.50;26.00;;;;;;;;;;5095194;28;20439;-66
2021/12/15 13:39:42;;;;;;;51.70;25.07;;;;;;;;;;5094981;28;20530;-65
2021/12/15 13:42:14;;;;;;;48.67;25.07;;;;;;;;;;5095331;28;20424;-65
2021/12/15 13:44:48;;;;;;;45.10;23.20;;;;;;;;;;5095026;28;20435;-65
2021/12/15 13:47:17;;;;;;;48.77;25.97;;;;;;;;;;5094797;28;20528;-66
2021/12/15 13:49:46;;;;;;;60.00;26.27;;;;;;;;;;5094271;28;20470;-66
2021/12/15 13:52:28;;;;;;;71.90;30.60;;;;;;;;;;5094830;28;20523;-65
2021/12/15 13:55:00;;;;;;;46.90;25.40;;;;;;;;;;5094777;28;20432;-65
2021/12/15 13:57:32;;;;;;;47.43;25.87;;;;;;;;;;5094815;28;20467;-66
2021/12/15 14:00:03;;;;;;;45.30;24.53;;;;;;;;;;5094658;28;20471;-66
2021/12/15 14:02:31;;;;;;;47.93;25.57;;;;;;;;;;5095225;28;20434;-65
2021/12/15 14:05:00;;;;;;;47.10;25.23;;;;;;;;;;5094665;28;20513;-65
2021/12/15 14:07:34;;;;;;;55.37;25.20;;;;;;;;;;5093965;28;20466;-65
2021/12/15 14:10:03;;;;;;;49.83;23.30;;;;;;;;;;5094153;28;20501;-66
2021/12/15 14:12:49;;;;;;;48.93;24.57;;;;;;;;;;5095006;28;20842;-66
2021/12/15 14:15:38;;;;;;;46.27;24.10;;;;;;;;;;5094358;28;20475;-65
2021/12/15 14:18:06;;;;;;;47.13;27.00;;;;;;;;;;5093714;28;20953;-66
2021/12/15 14:20:39;;;;;;;46.83;24.10;;;;;;;;;;5094589;28;20849;-66
2021/12/15 14:23:07;;;;;;;48.20;24.37;;;;;;;;;;5094218;28;20468;-66
2021/12/15 14:25:35;;;;;;;44.53;23.83;;;;;;;;;;5094372;28;20480;-66
2021/12/15 14:28:06;;;;;;;45.07;24.87;;;;;;;;;;5093453;28;20450;-66
2021/12/15 14:30:35;;;;;;;45.00;25.80;;;;;;;;;;5093833;28;20935;-67
2021/12/15 14:33:02;;;;;;;42.43;24.77;;;;;;;;;;5094282;28;20970;-66
2021/12/15 14:35:29;;;;;;;47.90;26.70;;;;;;;;;;5093931;28;20526;-66
2021/12/15 14:37:57;;;;;;;43.17;24.47;;;;;;;;;;5094609;28;20444;-66
2021/12/15 14:40:24;;;;;;;43.50;23.93;;;;;;;;;;5094376;28;20486;-66
2021/12/15 14:42:51;;;;;;;37.67;21.97;;;;;;;;;;5093856;28;20523;-67
2021/12/15 14:45:18;;;;;;;44.57;25.20;;;;;;;;;;5093464;28;20483;-66
2021/12/15 14:47:48;;;;;;;53.37;25.30;;;;;;;;;;5094686;28;20472;-66
2021/12/15 14:50:17;;;;;;;46.03;24.47;;;;;;;;;;5094019;28;20442;-66
2021/12/15 14:52:46;;;;;;;47.30;23.80;;;;;;;;;;5094332;28;20467;-66
2021/12/15 14:55:15;;;;;;;47.63;24.03;;;;;;;;;;5093421;28;20526;-66
2021/12/15 14:57:43;;;;;;;45.73;25.37;;;;;;;;;;5093931;28;20926;-66
2021/12/15 15:00:13;;;;;;;47.03;25.33;;;;;;;;;;5093517;28;20443;-66
2021/12/15 15:02:43;;;;;;;43.50;23.97;;;;;;;;;;5093899;28;20499;-66
2021/12/15 15:05:13;;;;;;;42.63;24.97;;;;;;;;;;5093673;28;20518;-66
2021/12/15 15:07:42;;;;;;;45.63;23.77;;;;;;;;;;5094323;28;20433;-66
2021/12/15 15:10:11;;;;;;;48.47;24.80;;;;;;;;;;5093850;28;20475;-65
2021/12/15 15:12:39;;;;;;;41.23;24.50;;;;;;;;;;5093635;28;20475;-66
2021/12/15 15:15:09;;;;;;;49.67;26.70;;;;;;;;;;5093868;28;20532;-66
2021/12/15 15:17:47;;;;;;;52.77;26.40;;;;;;;;;;5093471;28;20443;-65
2021/12/15 15:20:16;;;;;;;48.90;26.33;;;;;;;;;;5093962;28;20423;-65
2021/12/15 15:22:45;;;;;;;50.37;24.87;;;;;;;;;;5092640;28;20534;-66
2021/12/15 15:25:13;;;;;;;59.33;27.23;;;;;;;;;;5092527;28;20475;-65
2021/12/15 15:27:42;;;;;;;56.20;26.23;;;;;;;;;;5092998;28;20526;-66
2021/12/15 15:30:11;;;;;;;44.20;24.90;;;;;;;;;;5092969;28;20824;-66
2021/12/15 15:32:40;;;;;;;47.00;25.63;;;;;;;;;;5092667;28;20506;-65
2021/12/15 15:35:10;;;;;;;49.67;26.00;;;;;;;;;;5092622;28;20436;-68
2021/12/15 15:37:39;;;;;;;46.00;26.20;;;;;;;;;;5093013;28;20475;-69
2021/12/15 15:40:30;;;;;;;41.83;23.67;;;;;;;;;;5092333;28;20553;-69
2021/12/15 15:43:02;;;;;;;46.43;26.07;;;;;;;;;;5073036;28;20444;-67